createdAt,value
2023-03-08T00:00:04.107Z,12.91
2023-03-08T00:01:43.890Z,12.92
2023-03-08T00:03:23.642Z,12.93
2023-03-08T00:05:03.415Z,12.93
2023-03-08T00:06:43.159Z,12.92
2023-03-08T00:08:22.932Z,12.92
2023-03-08T00:10:02.697Z,12.93
2023-03-08T00:11:42.453Z,12.92
2023-03-08T00:13:22.204Z,12.92
2023-03-08T00:15:02.044Z,12.92
2023-03-08T00:16:41.790Z,12.92
2023-03-08T00:18:21.510Z,12.93
2023-03-08T00:20:01.277Z,12.93
2023-03-08T00:21:41.044Z,12.92
2023-03-08T00:23:20.792Z,12.91
2023-03-08T00:25:00.569Z,12.92
2023-03-08T00:26:40.339Z,12.91
2023-03-08T00:28:20.091Z,12.93
2023-03-08T00:29:59.849Z,12.91
2023-03-08T00:31:39.623Z,12.93
2023-03-08T00:33:19.387Z,12.92
2023-03-08T00:34:59.146Z,12.91
2023-03-08T00:36:38.962Z,12.91
2023-03-08T00:38:18.688Z,12.9
2023-03-08T00:39:58.444Z,12.92
2023-03-08T00:41:38.220Z,12.91
2023-03-08T00:43:17.969Z,12.91
2023-03-08T00:44:57.745Z,12.91
2023-03-08T00:46:37.517Z,12.91
2023-03-08T00:48:17.325Z,12.91
2023-03-08T00:49:57.040Z,12.92
2023-03-08T00:51:36.876Z,12.91
2023-03-08T00:53:16.554Z,12.91
2023-03-08T00:54:56.339Z,12.91
2023-03-08T00:56:36.098Z,12.91
2023-03-08T00:58:15.847Z,12.9
2023-03-08T00:59:55.617Z,12.9
2023-03-08T01:01:35.374Z,12.9
2023-03-08T01:03:15.208Z,12.9
2023-03-08T01:04:54.909Z,12.9
2023-03-08T01:06:34.668Z,12.9
2023-03-08T01:08:14.437Z,12.9
2023-03-08T01:09:54.182Z,12.9
2023-03-08T01:11:33.962Z,12.9
2023-03-08T01:13:13.725Z,12.9
2023-03-08T01:14:53.563Z,12.9
2023-03-08T01:16:33.254Z,12.9
2023-03-08T01:18:13.014Z,12.9
2023-03-08T01:19:52.808Z,12.9
2023-03-08T01:21:32.531Z,12.9
2023-03-08T01:23:12.315Z,12.89
2023-03-08T01:24:52.075Z,12.89
2023-03-08T01:26:31.821Z,12.89
2023-03-08T01:28:11.605Z,12.89
2023-03-08T01:29:51.351Z,12.89
2023-03-08T01:31:31.120Z,12.89
2023-03-08T01:33:10.891Z,12.89
2023-03-08T01:34:50.641Z,12.9
2023-03-08T01:36:30.442Z,12.88
2023-03-08T01:38:10.188Z,12.88
2023-03-08T01:39:49.942Z,12.88
2023-03-08T01:41:29.700Z,12.88
2023-03-08T01:43:09.455Z,12.88
2023-03-08T01:44:49.246Z,12.88
2023-03-08T01:46:28.996Z,12.88
2023-03-08T01:48:08.748Z,12.88
2023-03-08T01:49:48.521Z,12.88
2023-03-08T01:51:28.300Z,12.88
2023-03-08T01:53:08.055Z,12.88
2023-03-08T01:54:47.811Z,12.88
2023-03-08T01:56:27.572Z,12.86
2023-03-08T01:58:07.353Z,12.87
2023-03-08T01:59:47.098Z,12.87
2023-03-08T02:01:26.872Z,12.87
2023-03-08T02:03:06.655Z,12.87
2023-03-08T02:04:46.391Z,12.87
2023-03-08T02:06:26.163Z,12.87
2023-03-08T02:08:05.931Z,12.87
2023-03-08T02:09:45.691Z,12.87
2023-03-08T02:11:25.454Z,12.87
2023-03-08T02:13:05.224Z,12.87
2023-03-08T02:14:45.134Z,12.86
2023-03-08T02:16:24.765Z,12.86
2023-03-08T02:18:04.608Z,12.86
2023-03-08T02:19:44.268Z,12.86
2023-03-08T02:21:24.029Z,12.86
2023-03-08T02:23:03.807Z,12.86
2023-03-08T02:24:43.568Z,12.86
2023-03-08T02:26:23.364Z,12.85
2023-03-08T02:28:03.102Z,12.85
2023-03-08T02:29:42.861Z,12.85
2023-03-08T02:31:22.612Z,12.85
2023-03-08T02:33:02.390Z,12.85
2023-03-08T02:34:42.156Z,12.85
2023-03-08T02:36:21.919Z,12.85
2023-03-08T02:38:01.670Z,12.85
2023-03-08T02:39:41.447Z,12.86
2023-03-08T02:41:21.204Z,12.85
2023-03-08T02:43:00.958Z,12.84
2023-03-08T02:44:40.747Z,12.84
2023-03-08T02:46:20.492Z,12.84
2023-03-08T02:48:00.281Z,12.84
2023-03-08T02:49:40.034Z,12.84
2023-03-08T02:51:19.782Z,12.84
2023-03-08T02:52:59.555Z,12.84
2023-03-08T02:54:39.303Z,12.82
2023-03-08T02:56:19.083Z,12.82
2023-03-08T02:57:58.836Z,12.83
2023-03-08T02:59:38.621Z,12.83
2023-03-08T03:01:18.367Z,12.83
2023-03-08T03:02:58.144Z,12.83
2023-03-08T03:04:37.903Z,12.83
2023-03-08T03:06:17.660Z,12.83
2023-03-08T03:07:57.435Z,12.83
2023-03-08T03:09:37.188Z,12.83
2023-03-08T03:11:16.965Z,12.82
2023-03-08T03:12:56.708Z,12.81
2023-03-08T03:14:36.486Z,12.81
2023-03-08T03:16:16.243Z,12.81
2023-03-08T03:17:56.010Z,12.81
2023-03-08T03:19:35.782Z,12.82
2023-03-08T03:21:15.529Z,12.82
2023-03-08T03:22:55.304Z,12.81
2023-03-08T03:24:35.068Z,12.81
2023-03-08T03:26:14.832Z,12.81
2023-03-08T03:27:54.587Z,12.81
2023-03-08T03:29:34.404Z,12.81
2023-03-08T03:31:14.112Z,12.81
2023-03-08T03:32:53.895Z,12.81
2023-03-08T03:34:33.640Z,12.79
2023-03-08T03:36:13.401Z,12.79
2023-03-08T03:37:53.203Z,12.8
2023-03-08T03:39:32.917Z,12.8
2023-03-08T03:41:12.686Z,12.8
2023-03-08T03:42:52.502Z,12.8
2023-03-08T03:44:32.221Z,12.8
2023-03-08T03:46:12.012Z,12.8
2023-03-08T03:47:51.787Z,12.8
2023-03-08T03:49:31.508Z,12.79
2023-03-08T03:51:11.276Z,12.79
2023-03-08T03:52:51.043Z,12.79
2023-03-08T03:54:30.808Z,12.8
2023-03-08T03:56:10.569Z,12.79
2023-03-08T03:57:50.345Z,12.79
2023-03-08T03:59:30.162Z,12.79
2023-03-08T04:01:09.865Z,12.79
2023-03-08T04:02:49.651Z,12.79
2023-03-08T04:04:29.397Z,12.77
2023-03-08T04:06:09.172Z,12.79
2023-03-08T04:07:48.926Z,12.77
2023-03-08T04:09:28.694Z,12.77
2023-03-08T04:11:08.435Z,12.77
2023-03-08T04:12:48.219Z,12.77
2023-03-08T04:14:27.987Z,12.78
2023-03-08T04:16:07.729Z,12.78
2023-03-08T04:17:47.526Z,12.76
2023-03-08T04:19:27.273Z,12.76
2023-03-08T04:21:07.049Z,12.77
2023-03-08T04:22:46.893Z,12.77
2023-03-08T04:24:26.591Z,12.77
2023-03-08T04:26:06.321Z,12.77
2023-03-08T04:27:46.102Z,12.76
2023-03-08T04:29:25.870Z,12.76
2023-03-08T04:31:05.604Z,12.76
2023-03-08T04:32:45.385Z,12.76
2023-03-08T04:34:25.180Z,12.76
2023-03-08T04:36:04.922Z,12.76
2023-03-08T04:37:44.693Z,12.76
2023-03-08T04:39:24.431Z,12.76
2023-03-08T04:41:04.237Z,12.75
2023-03-08T04:42:43.960Z,12.75
2023-03-08T04:44:23.764Z,12.75
2023-03-08T04:46:03.481Z,12.74
2023-03-08T04:47:43.273Z,12.76
2023-03-08T04:49:23.028Z,12.75
2023-03-08T04:51:02.783Z,12.75
2023-03-08T04:52:42.541Z,12.76
2023-03-08T04:54:22.300Z,12.75
2023-03-08T04:56:02.082Z,12.75
2023-03-08T04:57:41.846Z,12.75
2023-03-08T04:59:21.599Z,12.75
2023-03-08T05:01:01.363Z,12.75
2023-03-08T05:02:41.130Z,12.74
2023-03-08T05:04:20.897Z,12.75
2023-03-08T05:06:00.653Z,12.75
2023-03-08T05:07:40.410Z,12.75
2023-03-08T05:09:20.191Z,12.75
2023-03-08T05:10:59.934Z,12.75
2023-03-08T05:12:39.708Z,12.74
2023-03-08T05:14:19.519Z,12.74
2023-03-08T05:15:59.243Z,12.74
2023-03-08T05:17:39.009Z,12.74
2023-03-08T05:19:18.786Z,12.75
2023-03-08T05:20:58.529Z,12.74
2023-03-08T05:22:38.288Z,12.74
2023-03-08T05:24:18.048Z,12.74
2023-03-08T05:25:57.845Z,12.75
2023-03-08T05:27:37.595Z,12.74
2023-03-08T05:29:17.344Z,12.74
2023-03-08T05:30:57.104Z,12.76
2023-03-08T05:32:36.875Z,12.75
2023-03-08T05:34:16.636Z,12.76
2023-03-08T05:35:56.390Z,12.76
2023-03-08T05:37:36.170Z,12.76
2023-03-08T05:39:15.931Z,12.76
2023-03-08T05:40:55.692Z,12.76
2023-03-08T05:42:35.474Z,12.76
2023-03-08T05:44:15.244Z,12.74
2023-03-08T05:45:54.992Z,12.76
2023-03-08T05:47:34.751Z,12.78
2023-03-08T05:49:14.525Z,12.78
2023-03-08T05:50:54.268Z,12.79
2023-03-08T05:52:34.043Z,12.8
2023-03-08T05:54:13.844Z,12.78
2023-03-08T05:55:53.578Z,12.81
2023-03-08T05:57:33.342Z,12.84
2023-03-08T05:59:13.090Z,12.83
2023-03-08T06:00:52.883Z,12.85
2023-03-08T06:02:32.622Z,12.86
2023-03-08T06:04:12.377Z,12.87
2023-03-08T06:05:52.138Z,12.88
2023-03-08T06:07:31.900Z,12.91
2023-03-08T06:09:11.698Z,12.9
2023-03-08T06:10:51.424Z,12.92
2023-03-08T06:12:31.204Z,12.95
2023-03-08T06:14:10.960Z,12.96
2023-03-08T06:15:50.746Z,12.98
2023-03-08T06:17:30.487Z,13
2023-03-08T06:19:10.258Z,13.04
2023-03-08T06:20:50.033Z,13.06
2023-03-08T06:22:29.781Z,13.1
2023-03-08T06:24:09.567Z,13.13
2023-03-08T06:25:49.291Z,13.16
2023-03-08T06:27:29.075Z,13.23
2023-03-08T06:29:08.839Z,13.35
2023-03-08T06:30:48.623Z,13.51
2023-03-08T06:32:28.397Z,13.64
2023-03-08T06:34:08.159Z,13.73
2023-03-08T06:35:47.907Z,13.83
2023-03-08T06:37:27.680Z,13.96
2023-03-08T06:39:07.576Z,14.06
2023-03-08T06:40:47.204Z,14.14
2023-03-08T06:42:26.979Z,14.24
2023-03-08T06:44:06.754Z,14.32
2023-03-08T06:45:46.498Z,14.41
2023-03-08T06:47:26.277Z,14.46
2023-03-08T06:49:06.048Z,14.87
2023-03-08T06:50:45.800Z,14.79
2023-03-08T06:52:25.565Z,14.79
2023-03-08T06:54:05.349Z,14.8
2023-03-08T06:55:45.123Z,14.83
2023-03-08T06:57:24.863Z,14.81
2023-03-08T06:59:04.742Z,14.8
2023-03-08T07:00:44.396Z,14.79
2023-03-08T07:02:24.170Z,14.74
2023-03-08T07:04:03.944Z,14.74
2023-03-08T07:05:43.705Z,14.74
2023-03-08T07:07:23.466Z,14.76
2023-03-08T07:09:03.239Z,14.78
2023-03-08T07:10:43.029Z,14.8
2023-03-08T07:12:22.758Z,14.84
2023-03-08T07:14:02.552Z,14.78
2023-03-08T07:15:42.291Z,14.84
2023-03-08T07:17:22.149Z,14.83
2023-03-08T07:19:01.820Z,14.83
2023-03-08T07:20:41.576Z,14.82
2023-03-08T07:22:21.420Z,14.85
2023-03-08T07:24:01.116Z,14.77
2023-03-08T07:25:40.905Z,14.78
2023-03-08T07:27:20.690Z,14.85
2023-03-08T07:29:00.420Z,14.78
2023-03-08T07:30:40.186Z,14.8
2023-03-08T07:32:19.952Z,14.81
2023-03-08T07:33:59.720Z,14.8
2023-03-08T07:35:39.500Z,14.81
2023-03-08T07:37:19.261Z,14.78
2023-03-08T07:38:59.023Z,14.81
2023-03-08T07:40:38.761Z,14.75
2023-03-08T07:42:18.546Z,14.8
2023-03-08T07:43:58.318Z,14.76
2023-03-08T07:45:38.075Z,14.84
2023-03-08T07:47:17.838Z,14.76
2023-03-08T07:48:57.594Z,14.82
2023-03-08T07:50:37.372Z,14.81
2023-03-08T07:52:17.270Z,14.82
2023-03-08T07:53:57.092Z,14.85
2023-03-08T07:55:36.755Z,14.74
2023-03-08T07:57:16.495Z,14.75
2023-03-08T07:58:56.180Z,14.8
2023-03-08T08:00:35.990Z,14.84
2023-03-08T08:02:15.899Z,14.76
2023-03-08T08:03:55.482Z,14.83
2023-03-08T08:05:35.314Z,14.77
2023-03-08T08:07:15.044Z,14.76
2023-03-08T08:08:54.781Z,14.86
2023-03-08T08:10:34.572Z,14.86
2023-03-08T08:12:14.342Z,14.76
2023-03-08T08:13:54.096Z,14.81
2023-03-08T08:15:33.825Z,14.77
2023-03-08T08:17:13.604Z,14.79
2023-03-08T08:18:53.531Z,14.85
2023-03-08T08:20:33.167Z,14.75
2023-03-08T08:22:13.002Z,14.83
2023-03-08T08:23:52.702Z,14.79
2023-03-08T08:25:32.488Z,14.81
2023-03-08T08:27:12.178Z,14.75
2023-03-08T08:28:51.934Z,14.84
2023-03-08T08:30:31.725Z,14.69
2023-03-08T08:32:11.468Z,14.74
2023-03-08T08:33:51.213Z,14.87
2023-03-08T08:35:30.986Z,14.82
2023-03-08T08:37:10.773Z,14.84
2023-03-08T08:38:50.531Z,14.72
2023-03-08T08:40:30.333Z,14.74
2023-03-08T08:42:10.203Z,14.8
2023-03-08T08:43:49.819Z,14.81
2023-03-08T08:45:29.571Z,14.77
2023-03-08T08:47:09.345Z,14.78
2023-03-08T08:48:49.082Z,14.08
2023-03-08T08:50:28.868Z,14.23
2023-03-08T08:52:08.806Z,14.24
2023-03-08T08:53:48.473Z,14.16
2023-03-08T08:55:28.209Z,14.18
2023-03-08T08:57:07.944Z,14.15
2023-03-08T08:58:47.730Z,14.2
2023-03-08T09:00:27.440Z,14.21
2023-03-08T09:02:07.302Z,14.14
2023-03-08T09:03:47.109Z,14.13
2023-03-08T09:05:26.809Z,14.11
2023-03-08T09:07:06.663Z,14.25
2023-03-08T09:08:46.404Z,14.11
2023-03-08T09:10:26.131Z,14.12
2023-03-08T09:12:05.946Z,14.22
2023-03-08T09:13:45.556Z,14.14
2023-03-08T09:15:25.370Z,14.14
2023-03-08T09:17:05.284Z,14.18
2023-03-08T09:18:44.916Z,14.13
2023-03-08T09:20:24.593Z,14.18
2023-03-08T09:22:04.376Z,14.16
2023-03-08T09:23:44.155Z,14.23
2023-03-08T09:25:24.066Z,14.24
2023-03-08T09:27:03.760Z,14.15
2023-03-08T09:28:43.452Z,14.11
2023-03-08T09:30:23.198Z,14.12
2023-03-08T09:32:02.970Z,14.18
2023-03-08T09:33:42.715Z,14.21
2023-03-08T09:35:22.575Z,14.13
2023-03-08T09:37:02.267Z,14.23
2023-03-08T09:38:42.009Z,14.24
2023-03-08T09:40:21.786Z,14.14
2023-03-08T09:42:01.592Z,14.16
2023-03-08T09:43:41.307Z,14.15
2023-03-08T09:45:21.214Z,14.18
2023-03-08T09:47:00.847Z,14.12
2023-03-08T09:48:40.776Z,14.22
2023-03-08T09:50:20.516Z,14.23
2023-03-08T09:52:00.135Z,14.29
2023-03-08T09:53:40.010Z,14.11
2023-03-08T09:55:19.807Z,14.16
2023-03-08T09:56:59.516Z,14.28
2023-03-08T09:58:39.325Z,14.15
2023-03-08T10:00:19.009Z,14.18
2023-03-08T10:01:58.716Z,14.14
2023-03-08T10:03:38.466Z,14.22
2023-03-08T10:05:18.221Z,14.29
2023-03-08T10:06:58.064Z,14.16
2023-03-08T10:08:37.815Z,14.2
2023-03-08T10:10:17.532Z,14.2
2023-03-08T10:11:57.316Z,14.16
2023-03-08T10:13:37.116Z,14.15
2023-03-08T10:15:16.816Z,14.21
2023-03-08T10:16:56.640Z,14.18
2023-03-08T10:18:36.337Z,14.24
2023-03-08T10:20:16.099Z,14.24
2023-03-08T10:21:55.982Z,14.14
2023-03-08T10:23:35.628Z,14.19
2023-03-08T10:25:15.384Z,14.25
2023-03-08T10:26:55.152Z,14.17
2023-03-08T10:28:34.932Z,14.14
2023-03-08T10:30:14.695Z,14.12
2023-03-08T10:31:54.456Z,14.16
2023-03-08T10:33:34.476Z,14.25
2023-03-08T10:35:14.002Z,14.27
2023-03-08T10:36:53.861Z,14.2
2023-03-08T10:38:33.509Z,14.15
2023-03-08T10:40:13.283Z,14.14
2023-03-08T10:41:53.038Z,14.2
2023-03-08T10:43:32.835Z,14.15
2023-03-08T10:45:12.561Z,14.11
2023-03-08T10:46:52.343Z,14.2
2023-03-08T10:48:32.111Z,14.19
2023-03-08T10:50:11.864Z,14.27
2023-03-08T10:51:51.630Z,14.18
2023-03-08T10:53:31.468Z,14.22
2023-03-08T10:55:11.154Z,14.19
2023-03-08T10:56:50.953Z,14.18
2023-03-08T10:58:30.712Z,14.23
2023-03-08T11:00:10.442Z,14.09
2023-03-08T11:01:50.211Z,14.19
2023-03-08T11:03:29.992Z,14.2
2023-03-08T11:05:09.736Z,14.16
2023-03-08T11:06:49.479Z,14.21
2023-03-08T11:08:29.266Z,14.1
2023-03-08T11:10:09.076Z,14.11
2023-03-08T11:11:48.804Z,14.28
2023-03-08T11:13:28.592Z,14.16
2023-03-08T11:15:08.358Z,14.1
2023-03-08T11:16:48.236Z,14.28
2023-03-08T11:18:27.992Z,14.11
2023-03-08T11:20:07.607Z,14.14
2023-03-08T11:21:47.366Z,14.12
2023-03-08T11:23:27.297Z,14.24
2023-03-08T11:25:06.902Z,14.17
2023-03-08T11:26:46.680Z,14.15
2023-03-08T11:28:26.675Z,14.2
2023-03-08T11:30:06.187Z,14.11
2023-03-08T11:31:46.018Z,14.14
2023-03-08T11:33:25.737Z,14.16
2023-03-08T11:35:05.483Z,14.14
2023-03-08T11:36:45.257Z,14.13
2023-03-08T11:38:25.002Z,14.12
2023-03-08T11:40:04.772Z,14.17
2023-03-08T11:41:44.534Z,14.23
2023-03-08T11:43:24.322Z,14.18
2023-03-08T11:45:04.114Z,14.19
2023-03-08T11:46:43.906Z,14.28
2023-03-08T11:48:23.607Z,14.23
2023-03-08T11:50:03.357Z,14.26
2023-03-08T11:51:43.130Z,14.23
2023-03-08T11:53:22.890Z,14.1
2023-03-08T11:55:02.638Z,14.12
2023-03-08T11:56:42.410Z,14.1
2023-03-08T11:58:22.165Z,14.08
2023-03-08T12:00:01.949Z,14.08
2023-03-08T12:01:41.697Z,14.23
2023-03-08T12:03:21.540Z,14.12
2023-03-08T12:05:01.228Z,14.17
2023-03-08T12:06:41.014Z,14.15
2023-03-08T12:08:20.859Z,14.24
2023-03-08T12:10:00.620Z,14.21
2023-03-08T12:11:40.287Z,14.11
2023-03-08T12:13:20.106Z,14.13
2023-03-08T12:14:59.814Z,14.18
2023-03-08T12:16:39.594Z,14.1
2023-03-08T12:18:19.316Z,14.18
2023-03-08T12:19:59.132Z,14.29
2023-03-08T12:21:38.865Z,14.13
2023-03-08T12:23:18.628Z,14.1
2023-03-08T12:24:58.382Z,14.17
2023-03-08T12:26:38.157Z,14.14
2023-03-08T12:28:17.917Z,14.12
2023-03-08T12:29:57.740Z,14.08
2023-03-08T12:31:37.457Z,14.15
2023-03-08T12:33:17.252Z,14.12
2023-03-08T12:34:56.970Z,14.17
2023-03-08T12:36:36.739Z,14.27
2023-03-08T12:38:16.515Z,14.17
2023-03-08T12:39:56.379Z,14.25
2023-03-08T12:41:36.118Z,14.09
2023-03-08T12:43:15.795Z,14.17
2023-03-08T12:44:55.573Z,14.09
2023-03-08T12:46:35.320Z,14.16
2023-03-08T12:48:15.137Z,14.2
2023-03-08T12:49:54.892Z,14.09
2023-03-08T12:51:34.632Z,14.13
2023-03-08T12:53:14.377Z,14.15
2023-03-08T12:54:54.141Z,14.1
2023-03-08T12:56:33.906Z,14.23
2023-03-08T12:58:13.713Z,14.2
2023-03-08T12:59:53.433Z,14.14
2023-03-08T13:01:33.208Z,14.09
2023-03-08T13:03:12.957Z,14.22
2023-03-08T13:04:52.757Z,14.1
2023-03-08T13:06:32.510Z,14.2
2023-03-08T13:08:12.261Z,14.1
2023-03-08T13:09:52.026Z,14.11
2023-03-08T13:11:31.791Z,14.3
2023-03-08T13:13:11.611Z,14.1
2023-03-08T13:14:51.320Z,14.13
2023-03-08T13:16:31.073Z,14.13
2023-03-08T13:18:10.851Z,14.13
2023-03-08T13:19:50.671Z,14.21
2023-03-08T13:21:30.374Z,14.11
2023-03-08T13:23:10.319Z,14.17
2023-03-08T13:24:49.907Z,14.12
2023-03-08T13:26:29.742Z,14.12
2023-03-08T13:28:09.611Z,14.09
2023-03-08T13:29:49.184Z,14.12
2023-03-08T13:31:29.066Z,14.13
2023-03-08T13:33:08.724Z,14.27
2023-03-08T13:34:48.508Z,14.28
2023-03-08T13:36:28.256Z,14.21
2023-03-08T13:38:08.014Z,14.25
2023-03-08T13:39:47.777Z,14.13
2023-03-08T13:41:27.534Z,14.18
2023-03-08T13:43:07.290Z,14.09
2023-03-08T13:44:47.105Z,14.1
2023-03-08T13:46:26.833Z,14.17
2023-03-08T13:48:06.583Z,14.17
2023-03-08T13:49:46.389Z,14.12
2023-03-08T13:51:26.105Z,14.09
2023-03-08T13:53:05.890Z,14.13
2023-03-08T13:54:45.659Z,14.24
2023-03-08T13:56:25.638Z,14.13
2023-03-08T13:58:05.386Z,14.13
2023-03-08T13:59:45.008Z,14.12
2023-03-08T14:01:24.705Z,14.19
2023-03-08T14:03:04.457Z,14.14
2023-03-08T14:04:44.221Z,14.18
2023-03-08T14:06:24.110Z,14.17
2023-03-08T14:08:03.863Z,14.09
2023-03-08T14:09:43.545Z,14.29
2023-03-08T14:11:23.311Z,14.19
2023-03-08T14:13:03.132Z,14.11
2023-03-08T14:14:42.849Z,14.26
2023-03-08T14:16:22.582Z,14.16
2023-03-08T14:18:02.344Z,14.12
2023-03-08T14:19:42.105Z,14.17
2023-03-08T14:21:21.869Z,14.19
2023-03-08T14:23:01.660Z,14.13
2023-03-08T14:24:41.430Z,14.09
2023-03-08T14:26:21.165Z,14.18
2023-03-08T14:28:01.089Z,14.06
2023-03-08T14:29:40.692Z,14.12
2023-03-08T14:31:20.453Z,14.17
2023-03-08T14:33:00.213Z,14.11
2023-03-08T14:34:39.994Z,14.13
2023-03-08T14:36:19.740Z,14.17
2023-03-08T14:37:59.515Z,14.1
2023-03-08T14:39:39.311Z,14.13
2023-03-08T14:41:19.043Z,14.15
2023-03-08T14:42:58.830Z,14.16
2023-03-08T14:44:38.663Z,14.16
2023-03-08T14:46:18.326Z,14.21
2023-03-08T14:47:58.102Z,14.19
2023-03-08T14:49:37.955Z,14.07
2023-03-08T14:51:17.614Z,14.16
2023-03-08T14:52:57.370Z,14.14
2023-03-08T14:54:37.183Z,14.21
2023-03-08T14:56:16.957Z,14.31
2023-03-08T14:57:56.732Z,14.27
2023-03-08T14:59:36.434Z,14.19
2023-03-08T15:01:16.221Z,14.13
2023-03-08T15:02:55.952Z,14.15
2023-03-08T15:04:35.726Z,14.12
2023-03-08T15:06:15.551Z,14.26
2023-03-08T15:07:55.265Z,14.18
2023-03-08T15:09:35.093Z,14.11
2023-03-08T15:11:14.841Z,14.2
2023-03-08T15:12:54.682Z,14.25
2023-03-08T15:14:34.293Z,14.2
2023-03-08T15:16:14.063Z,14.11
2023-03-08T15:17:53.856Z,14.14
2023-03-08T15:19:33.609Z,14.08
2023-03-08T15:21:13.370Z,14.11
2023-03-08T15:22:53.113Z,14.23
2023-03-08T15:24:32.894Z,14.1
2023-03-08T15:26:12.662Z,14.18
2023-03-08T15:27:52.496Z,14.1
2023-03-08T15:29:32.165Z,14.14
2023-03-08T15:31:11.932Z,14.28
2023-03-08T15:32:51.708Z,14.13
2023-03-08T15:34:31.491Z,14.15
2023-03-08T15:36:11.226Z,14.22
2023-03-08T15:37:51.026Z,14.26
2023-03-08T15:39:30.771Z,14.12
2023-03-08T15:41:10.566Z,14.07
2023-03-08T15:42:50.295Z,14.16
2023-03-08T15:44:30.054Z,14.11
2023-03-08T15:46:09.847Z,14.1
2023-03-08T15:47:49.564Z,14.13
2023-03-08T15:49:29.389Z,14.19
2023-03-08T15:51:09.100Z,14.16
2023-03-08T15:52:48.876Z,14.11
2023-03-08T15:54:28.722Z,14.22
2023-03-08T15:56:08.399Z,14.1
2023-03-08T15:57:48.248Z,14.22
2023-03-08T15:59:27.978Z,14.18
2023-03-08T16:01:07.722Z,14.19
2023-03-08T16:02:47.448Z,14.29
2023-03-08T16:04:27.218Z,14.26
2023-03-08T16:06:07.083Z,14.17
2023-03-08T16:07:46.739Z,14.2
2023-03-08T16:09:26.531Z,14.09
2023-03-08T16:11:06.280Z,14.27
2023-03-08T16:12:46.208Z,14.24
2023-03-08T16:14:25.848Z,14.19
2023-03-08T16:16:05.572Z,14.17
2023-03-08T16:17:45.397Z,14.31
2023-03-08T16:19:25.086Z,14.31
2023-03-08T16:21:04.863Z,14.26
2023-03-08T16:22:44.661Z,14.24
2023-03-08T16:24:24.390Z,14.06
2023-03-08T16:26:04.200Z,13.45
2023-03-08T16:27:43.993Z,13.39
2023-03-08T16:29:23.687Z,13.34
2023-03-08T16:31:03.455Z,13.3
2023-03-08T16:32:43.196Z,13.28
2023-03-08T16:34:22.957Z,13.28
2023-03-08T16:36:02.735Z,13.26
2023-03-08T16:37:42.592Z,13.24
2023-03-08T16:39:22.286Z,13.21
2023-03-08T16:41:02.055Z,13.21
2023-03-08T16:42:41.957Z,13.2
2023-03-08T16:44:21.700Z,13.2
2023-03-08T16:46:01.323Z,13.19
2023-03-08T16:47:41.258Z,13.17
2023-03-08T16:49:20.850Z,13.17
2023-03-08T16:51:00.608Z,13.17
2023-03-08T16:52:40.497Z,13.16
2023-03-08T16:54:20.165Z,13.15
2023-03-08T16:55:59.915Z,13.15
2023-03-08T16:57:39.653Z,13.13
2023-03-08T16:59:19.599Z,13.13
2023-03-08T17:00:59.179Z,13.12
2023-03-08T17:02:38.982Z,13.12
2023-03-08T17:04:18.811Z,13.12
2023-03-08T17:05:58.501Z,13.12
2023-03-08T17:07:38.232Z,13.11
2023-03-08T17:09:18.053Z,13.11
2023-03-08T17:10:57.768Z,13.11
2023-03-08T17:12:37.525Z,13.1
2023-03-08T17:14:17.300Z,13.1
2023-03-08T17:15:57.071Z,13.09
2023-03-08T17:17:36.818Z,13.09
2023-03-08T17:19:16.651Z,13.08
2023-03-08T17:20:56.336Z,13.09
2023-03-08T17:22:36.169Z,13.08
2023-03-08T17:24:15.887Z,13.08
2023-03-08T17:25:55.632Z,13.08
2023-03-08T17:27:35.396Z,13.06
2023-03-08T17:29:15.161Z,13.08
2023-03-08T17:30:54.941Z,13.07
2023-03-08T17:32:34.709Z,13.06
2023-03-08T17:34:14.456Z,13.07
2023-03-08T17:35:54.234Z,13.07
2023-03-08T17:37:33.997Z,13.07
2023-03-08T17:39:13.757Z,13.05
2023-03-08T17:40:53.521Z,13.07
2023-03-08T17:42:33.298Z,13.06
2023-03-08T17:44:13.088Z,13.06
2023-03-08T17:45:52.813Z,13.05
2023-03-08T17:47:32.565Z,13.05
2023-03-08T17:50:52.100Z,13.05
2023-03-08T17:52:31.875Z,13.04
2023-03-08T17:54:11.622Z,13.04
2023-03-08T17:55:51.411Z,13.04
2023-03-08T17:57:31.153Z,13.05
2023-03-08T17:59:10.917Z,13.05
2023-03-08T18:00:50.676Z,13.05
2023-03-08T18:02:30.487Z,13.05
2023-03-08T18:04:10.212Z,13.03
2023-03-08T18:05:49.974Z,13.04
2023-03-08T18:07:29.739Z,13.04
2023-03-08T18:09:09.506Z,13.05
2023-03-08T18:10:49.287Z,13.04
2023-03-08T18:12:29.025Z,13.04
2023-03-08T18:14:08.798Z,13.03
2023-03-08T18:15:48.557Z,13.03
2023-03-08T18:17:28.323Z,13.03
2023-03-08T18:19:08.095Z,13.03
2023-03-08T18:20:47.850Z,13.03
2023-03-08T18:22:27.619Z,13.04
2023-03-08T18:24:07.367Z,13.05
2023-03-08T18:25:47.165Z,13.04
2023-03-08T18:27:26.911Z,13.03
2023-03-08T18:29:06.668Z,13.03
2023-03-08T18:30:46.466Z,13.03
2023-03-08T18:32:26.198Z,13.03
2023-03-08T18:34:05.966Z,13.03
2023-03-08T18:35:45.716Z,13.03
2023-03-08T18:37:25.485Z,13.03
2023-03-08T18:39:05.256Z,13.04
2023-03-08T18:40:45.015Z,13.03
2023-03-08T18:42:24.817Z,13.03
2023-03-08T18:44:04.539Z,13.03
2023-03-08T18:45:44.336Z,13.03
2023-03-08T18:47:24.068Z,13.02
2023-03-08T18:49:03.858Z,13.03
2023-03-08T18:50:43.601Z,13.03
2023-03-08T18:52:23.346Z,13.03
2023-03-08T18:54:03.132Z,13.03
2023-03-08T18:55:42.876Z,13.03
2023-03-08T18:57:22.646Z,13.03
2023-03-08T18:59:02.416Z,13.03
2023-03-08T19:00:42.170Z,13.03
2023-03-08T19:02:21.928Z,13.03
2023-03-08T19:04:01.710Z,13.02
2023-03-08T19:05:41.475Z,13.02
2023-03-08T19:07:21.282Z,13.03
2023-03-08T19:09:01.002Z,13.02
2023-03-08T19:10:40.755Z,13.02
2023-03-08T19:12:20.528Z,13.02
2023-03-08T19:14:00.282Z,13.02
2023-03-08T19:15:40.086Z,13.02
2023-03-08T19:17:19.820Z,13.02
2023-03-08T19:18:59.593Z,13.02
2023-03-08T19:20:39.353Z,13.01
2023-03-08T19:22:19.164Z,13.01
2023-03-08T19:23:58.898Z,13.01
2023-03-08T19:25:38.656Z,13.01
2023-03-08T19:27:18.402Z,13.01
2023-03-08T19:28:58.158Z,13.01
2023-03-08T19:30:37.938Z,13.01
2023-03-08T19:32:17.699Z,13.01
2023-03-08T19:33:57.445Z,13.01
2023-03-08T19:35:37.225Z,13.01
2023-03-08T19:37:16.991Z,13.01
2023-03-08T19:38:56.811Z,13.01
2023-03-08T19:40:36.551Z,13
2023-03-08T19:42:16.271Z,13
2023-03-08T19:43:56.049Z,13
2023-03-08T19:45:35.796Z,13
2023-03-08T19:47:15.569Z,13
2023-03-08T19:48:55.339Z,13
2023-03-08T19:50:35.099Z,13
2023-03-08T19:52:14.880Z,13
2023-03-08T19:53:54.619Z,13
2023-03-08T19:55:34.390Z,13
2023-03-08T19:57:14.155Z,13
2023-03-08T19:58:53.936Z,13
2023-03-08T20:00:33.681Z,12.99
2023-03-08T20:02:13.457Z,13.01
2023-03-08T20:03:53.246Z,13.01
2023-03-08T20:05:32.972Z,13
2023-03-08T20:07:12.766Z,13
2023-03-08T20:08:52.527Z,12.99
2023-03-08T20:10:32.427Z,13
2023-03-08T20:12:12.054Z,13
2023-03-08T20:13:51.794Z,13
2023-03-08T20:15:31.570Z,13
2023-03-08T20:17:11.419Z,12.99
2023-03-08T20:18:51.115Z,12.99
2023-03-08T20:20:30.906Z,12.99
2023-03-08T20:22:10.859Z,12.99
2023-03-08T20:23:50.375Z,12.99
2023-03-08T20:25:30.284Z,12.99
2023-03-08T20:27:09.954Z,12.99
2023-03-08T20:28:49.672Z,12.99
2023-03-08T20:30:29.422Z,12.99
2023-03-08T20:32:09.199Z,12.99
2023-03-08T20:33:48.971Z,13
2023-03-08T20:35:28.758Z,12.99
2023-03-08T20:37:08.476Z,12.99
2023-03-08T20:38:48.381Z,12.99
2023-03-08T20:40:28.015Z,12.99
2023-03-08T20:42:07.812Z,12.99
2023-03-08T20:43:47.538Z,12.99
2023-03-08T20:45:27.302Z,12.99
2023-03-08T20:47:07.081Z,12.99
2023-03-08T20:48:46.850Z,12.97
2023-03-08T20:50:26.602Z,13
2023-03-08T20:52:06.395Z,12.99
2023-03-08T20:53:46.399Z,12.99
2023-03-08T20:55:25.880Z,12.99
2023-03-08T20:57:05.653Z,12.98
2023-03-08T20:58:45.422Z,12.99
2023-03-08T21:00:25.167Z,12.99
2023-03-08T21:02:04.945Z,12.99
2023-03-08T21:03:44.910Z,12.98
2023-03-08T21:05:24.468Z,12.98
2023-03-08T21:07:04.224Z,12.98
2023-03-08T21:08:44.047Z,12.98
2023-03-08T21:10:23.788Z,12.98
2023-03-08T21:12:03.518Z,12.98
2023-03-08T21:13:43.348Z,12.96
2023-03-08T21:15:23.090Z,12.98
2023-03-08T21:17:02.813Z,12.98
2023-03-08T21:18:42.578Z,12.98
2023-03-08T21:20:22.335Z,12.98
2023-03-08T21:22:02.107Z,12.98
2023-03-08T21:23:41.907Z,12.96
2023-03-08T21:25:21.631Z,12.98
2023-03-08T21:27:01.393Z,12.98
2023-03-08T21:28:41.157Z,12.97
2023-03-08T21:30:20.928Z,12.97
2023-03-08T21:32:00.712Z,12.98
2023-03-08T21:33:40.521Z,12.96